sensor_id;sensor_type;location;lat;lon;timestamp;P1;durP1;ratioP1;P2;durP2;ratioP2
44885;SDS011;36669;51.428;21.162;2023-06-22T00:02:13;0.00;;;0.00;;
44885;SDS011;36669;51.428;21.162;2023-06-22T00:04:38;0.25;;;0.22;;
44885;SDS011;36669;51.428;21.162;2023-06-22T00:07:04;0.00;;;0.00;;
44885;SDS011;36669;51.428;21.162;2023-06-22T00:09:30;0.00;;;0.00;;
44885;SDS011;36669;51.428;21.162;2023-06-22T00:11:56;2.67;;;0.80;;
44885;SDS011;36669;51.428;21.162;2023-06-22T00:14:22;0.00;;;0.00;;
44885;SDS011;36669;51.428;21.162;2023-06-22T00:16:47;0.00;;;0.00;;
44885;SDS011;36669;51.428;21.162;2023-06-22T00:19:14;1.55;;;0.90;;
44885;SDS011;36669;51.428;21.162;2023-06-22T00:21:40;0.45;;;0.45;;
44885;SDS011;36669;51.428;21.162;2023-06-22T00:24:07;1.45;;;0.65;;
44885;SDS011;36669;51.428;21.162;2023-06-22T00:26:33;1.27;;;0.20;;
44885;SDS011;36669;51.428;21.162;2023-06-22T00:28:58;5.15;;;1.75;;
44885;SDS011;36669;51.428;21.162;2023-06-22T00:31:24;0.35;;;0.20;;
44885;SDS011;36669;51.428;21.162;2023-06-22T00:33:50;0.25;;;0.25;;
44885;SDS011;36669;51.428;21.162;2023-06-22T00:36:15;0.45;;;0.20;;
44885;SDS011;36669;51.428;21.162;2023-06-22T00:38:42;0.00;;;0.00;;
44885;SDS011;36669;51.428;21.162;2023-06-22T00:41:08;0.40;;;0.13;;
44885;SDS011;36669;51.428;21.162;2023-06-22T00:43:34;0.08;;;0.08;;
44885;SDS011;36669;51.428;21.162;2023-06-22T00:45:59;1.30;;;1.17;;
44885;SDS011;36669;51.428;21.162;2023-06-22T00:48:25;0.10;;;0.10;;
44885;SDS011;36669;51.428;21.162;2023-06-22T00:50:51;1.02;;;0.80;;
44885;SDS011;36669;51.428;21.162;2023-06-22T00:53:18;0.55;;;0.55;;
44885;SDS011;36669;51.428;21.162;2023-06-22T00:55:44;0.32;;;0.22;;
44885;SDS011;36669;51.428;21.162;2023-06-22T00:58:12;0.75;;;0.57;;
44885;SDS011;36669;51.428;21.162;2023-06-22T01:00:39;0.20;;;0.20;;
44885;SDS011;36669;51.428;21.162;2023-06-22T01:03:06;0.80;;;0.45;;
44885;SDS011;36669;51.428;21.162;2023-06-22T01:05:34;0.05;;;0.05;;
44885;SDS011;36669;51.428;21.162;2023-06-22T01:13:35;0.30;;;0.30;;
44885;SDS011;36669;51.428;21.162;2023-06-22T01:16:22;0.00;;;0.00;;
44885;SDS011;36669;51.428;21.162;2023-06-22T01:18:52;0.10;;;0.10;;
44885;SDS011;36669;51.428;21.162;2023-06-22T01:21:21;0.20;;;0.20;;
44885;SDS011;36669;51.428;21.162;2023-06-22T01:23:54;0.10;;;0.10;;
44885;SDS011;36669;51.428;21.162;2023-06-22T01:29:11;0.00;;;0.00;;
44885;SDS011;36669;51.428;21.162;2023-06-22T01:31:39;0.00;;;0.00;;
44885;SDS011;36669;51.428;21.162;2023-06-22T01:34:06;0.00;;;0.00;;
44885;SDS011;36669;51.428;21.162;2023-06-22T01:36:34;0.00;;;0.00;;
44885;SDS011;36669;51.428;21.162;2023-06-22T01:39:02;0.00;;;0.00;;
44885;SDS011;36669;51.428;21.162;2023-06-22T01:41:30;0.00;;;0.00;;
44885;SDS011;36669;51.428;21.162;2023-06-22T01:43:59;0.00;;;0.00;;
44885;SDS011;36669;51.428;21.162;2023-06-22T01:46:26;0.00;;;0.00;;
44885;SDS011;36669;51.428;21.162;2023-06-22T01:48:51;0.00;;;0.00;;
44885;SDS011;36669;51.428;21.162;2023-06-22T01:51:18;0.00;;;0.00;;
44885;SDS011;36669;51.428;21.162;2023-06-22T01:53:44;0.00;;;0.00;;
44885;SDS011;36669;51.428;21.162;2023-06-22T01:56:10;0.00;;;0.00;;
44885;SDS011;36669;51.428;21.162;2023-06-22T01:58:37;0.00;;;0.00;;
44885;SDS011;36669;51.428;21.162;2023-06-22T02:01:11;0.00;;;0.00;;
44885;SDS011;36669;51.428;21.162;2023-06-22T02:03:41;0.00;;;0.00;;
44885;SDS011;36669;51.428;21.162;2023-06-22T02:06:21;0.00;;;0.00;;
44885;SDS011;36669;51.428;21.162;2023-06-22T02:08:53;0.00;;;0.00;;
44885;SDS011;36669;51.428;21.162;2023-06-22T02:11:22;0.10;;;0.10;;
44885;SDS011;36669;51.428;21.162;2023-06-22T02:13:49;0.00;;;0.00;;
44885;SDS011;36669;51.428;21.162;2023-06-22T02:16:15;0.00;;;0.00;;
44885;SDS011;36669;51.428;21.162;2023-06-22T02:18:49;0.20;;;0.20;;
44885;SDS011;36669;51.428;21.162;2023-06-22T02:21:16;0.88;;;0.88;;
44885;SDS011;36669;51.428;21.162;2023-06-22T02:23:42;0.30;;;0.30;;
44885;SDS011;36669;51.428;21.162;2023-06-22T02:26:08;0.05;;;0.03;;
44885;SDS011;36669;51.428;21.162;2023-06-22T02:28:33;0.00;;;0.00;;
44885;SDS011;36669;51.428;21.162;2023-06-22T02:30:59;0.10;;;0.10;;
44885;SDS011;36669;51.428;21.162;2023-06-22T02:33:25;2.55;;;0.80;;
44885;SDS011;36669;51.428;21.162;2023-06-22T02:35:50;1.27;;;0.43;;
44885;SDS011;36669;51.428;21.162;2023-06-22T02:38:16;0.15;;;0.15;;
44885;SDS011;36669;51.428;21.162;2023-06-22T02:40:42;2.80;;;1.10;;
44885;SDS011;36669;51.428;21.162;2023-06-22T02:43:08;0.35;;;0.35;;
44885;SDS011;36669;51.428;21.162;2023-06-22T02:45:33;3.85;;;1.13;;
44885;SDS011;36669;51.428;21.162;2023-06-22T02:47:59;5.40;;;2.28;;
44885;SDS011;36669;51.428;21.162;2023-06-22T02:50:25;0.80;;;0.57;;
44885;SDS011;36669;51.428;21.162;2023-06-22T02:52:50;0.98;;;0.45;;
44885;SDS011;36669;51.428;21.162;2023-06-22T02:55:16;1.23;;;1.13;;
44885;SDS011;36669;51.428;21.162;2023-06-22T02:57:41;2.45;;;0.65;;
44885;SDS011;36669;51.428;21.162;2023-06-22T03:00:09;1.48;;;1.33;;
44885;SDS011;36669;51.428;21.162;2023-06-22T03:02:45;0.20;;;0.20;;
44885;SDS011;36669;51.428;21.162;2023-06-22T03:05:12;7.30;;;1.63;;
44885;SDS011;36669;51.428;21.162;2023-06-22T03:07:40;4.03;;;2.40;;
44885;SDS011;36669;51.428;21.162;2023-06-22T03:10:07;1.65;;;0.30;;
44885;SDS011;36669;51.428;21.162;2023-06-22T03:12:38;0.65;;;0.65;;
44885;SDS011;36669;51.428;21.162;2023-06-22T03:15:05;1.42;;;0.80;;
44885;SDS011;36669;51.428;21.162;2023-06-22T03:17:32;12.55;;;2.13;;
44885;SDS011;36669;51.428;21.162;2023-06-22T03:19:58;4.07;;;2.80;;
44885;SDS011;36669;51.428;21.162;2023-06-22T03:22:23;3.42;;;0.22;;
44885;SDS011;36669;51.428;21.162;2023-06-22T03:24:49;11.98;;;5.13;;
44885;SDS011;36669;51.428;21.162;2023-06-22T03:27:15;1.95;;;1.33;;
44885;SDS011;36669;51.428;21.162;2023-06-22T03:29:40;3.92;;;2.08;;
44885;SDS011;36669;51.428;21.162;2023-06-22T03:32:06;4.78;;;3.13;;
44885;SDS011;36669;51.428;21.162;2023-06-22T03:34:32;8.27;;;3.08;;
44885;SDS011;36669;51.428;21.162;2023-06-22T03:37:04;5.18;;;3.58;;
44885;SDS011;36669;51.428;21.162;2023-06-22T03:39:29;4.43;;;1.95;;
44885;SDS011;36669;51.428;21.162;2023-06-22T03:41:56;6.38;;;4.13;;
44885;SDS011;36669;51.428;21.162;2023-06-22T03:44:22;7.38;;;4.75;;
44885;SDS011;36669;51.428;21.162;2023-06-22T03:46:47;0.93;;;0.90;;
44885;SDS011;36669;51.428;21.162;2023-06-22T03:49:13;6.10;;;2.30;;
44885;SDS011;36669;51.428;21.162;2023-06-22T03:51:38;2.83;;;1.80;;
44885;SDS011;36669;51.428;21.162;2023-06-22T03:54:04;4.07;;;2.30;;
44885;SDS011;36669;51.428;21.162;2023-06-22T03:56:30;8.32;;;5.15;;
44885;SDS011;36669;51.428;21.162;2023-06-22T03:58:56;3.25;;;1.98;;
44885;SDS011;36669;51.428;21.162;2023-06-22T04:01:22;4.85;;;1.48;;
44885;SDS011;36669;51.428;21.162;2023-06-22T04:03:47;4.50;;;2.70;;
44885;SDS011;36669;51.428;21.162;2023-06-22T04:06:14;9.93;;;3.85;;
44885;SDS011;36669;51.428;21.162;2023-06-22T04:08:40;3.28;;;1.55;;
44885;SDS011;36669;51.428;21.162;2023-06-22T04:11:06;2.10;;;1.90;;
44885;SDS011;36669;51.428;21.162;2023-06-22T04:13:31;8.00;;;3.80;;
44885;SDS011;36669;51.428;21.162;2023-06-22T04:15:57;3.03;;;1.92;;
44885;SDS011;36669;51.428;21.162;2023-06-22T04:18:23;6.97;;;3.00;;
44885;SDS011;36669;51.428;21.162;2023-06-22T04:20:48;8.88;;;4.20;;
44885;SDS011;36669;51.428;21.162;2023-06-22T04:23:14;6.13;;;3.92;;
44885;SDS011;36669;51.428;21.162;2023-06-22T04:25:40;9.45;;;5.25;;
44885;SDS011;36669;51.428;21.162;2023-06-22T04:28:05;12.60;;;6.22;;
44885;SDS011;36669;51.428;21.162;2023-06-22T04:30:37;12.75;;;5.68;;
44885;SDS011;36669;51.428;21.162;2023-06-22T04:33:11;13.98;;;5.93;;
44885;SDS011;36669;51.428;21.162;2023-06-22T04:35:37;3.05;;;2.15;;
44885;SDS011;36669;51.428;21.162;2023-06-22T04:38:06;6.13;;;3.28;;
44885;SDS011;36669;51.428;21.162;2023-06-22T04:40:32;1.35;;;1.25;;
44885;SDS011;36669;51.428;21.162;2023-06-22T04:42:57;1.48;;;1.38;;
44885;SDS011;36669;51.428;21.162;2023-06-22T04:45:27;5.18;;;3.10;;
44885;SDS011;36669;51.428;21.162;2023-06-22T04:47:53;10.43;;;5.50;;
44885;SDS011;36669;51.428;21.162;2023-06-22T04:50:19;4.10;;;2.33;;
44885;SDS011;36669;51.428;21.162;2023-06-22T04:52:46;10.27;;;6.70;;
44885;SDS011;36669;51.428;21.162;2023-06-22T04:55:12;9.60;;;5.85;;
44885;SDS011;36669;51.428;21.162;2023-06-22T04:57:42;13.10;;;6.70;;
44885;SDS011;36669;51.428;21.162;2023-06-22T05:00:13;21.48;;;8.20;;
44885;SDS011;36669;51.428;21.162;2023-06-22T05:02:44;3.05;;;2.15;;
44885;SDS011;36669;51.428;21.162;2023-06-22T05:05:10;6.25;;;3.45;;
44885;SDS011;36669;51.428;21.162;2023-06-22T05:07:56;6.05;;;3.58;;
44885;SDS011;36669;51.428;21.162;2023-06-22T05:10:25;4.50;;;3.08;;
44885;SDS011;36669;51.428;21.162;2023-06-22T05:12:51;10.35;;;5.65;;
44885;SDS011;36669;51.428;21.162;2023-06-22T05:15:16;11.93;;;5.07;;
44885;SDS011;36669;51.428;21.162;2023-06-22T05:17:44;9.43;;;5.55;;
44885;SDS011;36669;51.428;21.162;2023-06-22T05:20:10;12.52;;;7.60;;
44885;SDS011;36669;51.428;21.162;2023-06-22T05:22:37;8.02;;;3.00;;
44885;SDS011;36669;51.428;21.162;2023-06-22T05:25:05;10.93;;;6.68;;
44885;SDS011;36669;51.428;21.162;2023-06-22T05:27:33;19.13;;;7.82;;
44885;SDS011;36669;51.428;21.162;2023-06-22T05:29:59;12.10;;;5.32;;
44885;SDS011;36669;51.428;21.162;2023-06-22T05:32:24;3.10;;;2.60;;
44885;SDS011;36669;51.428;21.162;2023-06-22T05:34:50;2.92;;;1.80;;
44885;SDS011;36669;51.428;21.162;2023-06-22T05:37:15;2.58;;;1.70;;
44885;SDS011;36669;51.428;21.162;2023-06-22T05:39:41;5.70;;;0.68;;
44885;SDS011;36669;51.428;21.162;2023-06-22T05:42:07;7.53;;;3.83;;
44885;SDS011;36669;51.428;21.162;2023-06-22T05:44:33;17.40;;;8.38;;
44885;SDS011;36669;51.428;21.162;2023-06-22T05:46:58;2.53;;;1.92;;
44885;SDS011;36669;51.428;21.162;2023-06-22T05:49:24;0.65;;;0.65;;
44885;SDS011;36669;51.428;21.162;2023-06-22T05:51:54;3.97;;;1.67;;
44885;SDS011;36669;51.428;21.162;2023-06-22T05:54:21;12.65;;;8.82;;
44885;SDS011;36669;51.428;21.162;2023-06-22T05:56:47;9.38;;;5.90;;
44885;SDS011;36669;51.428;21.162;2023-06-22T05:59:12;14.73;;;8.27;;
44885;SDS011;36669;51.428;21.162;2023-06-22T06:01:38;24.42;;;8.57;;
44885;SDS011;36669;51.428;21.162;2023-06-22T06:04:05;14.43;;;7.00;;
44885;SDS011;36669;51.428;21.162;2023-06-22T06:06:33;4.47;;;2.55;;
44885;SDS011;36669;51.428;21.162;2023-06-22T06:09:02;21.25;;;6.38;;
44885;SDS011;36669;51.428;21.162;2023-06-22T06:11:28;15.80;;;7.03;;
44885;SDS011;36669;51.428;21.162;2023-06-22T06:13:54;23.38;;;10.00;;
44885;SDS011;36669;51.428;21.162;2023-06-22T06:16:20;1.05;;;1.02;;
44885;SDS011;36669;51.428;21.162;2023-06-22T06:18:45;1.92;;;0.93;;
44885;SDS011;36669;51.428;21.162;2023-06-22T06:21:11;13.80;;;9.05;;
44885;SDS011;36669;51.428;21.162;2023-06-22T06:23:37;16.00;;;6.40;;
44885;SDS011;36669;51.428;21.162;2023-06-22T06:26:02;16.63;;;9.82;;
44885;SDS011;36669;51.428;21.162;2023-06-22T06:28:32;13.52;;;6.78;;
44885;SDS011;36669;51.428;21.162;2023-06-22T06:30:58;10.25;;;5.90;;
44885;SDS011;36669;51.428;21.162;2023-06-22T06:33:24;26.38;;;11.93;;
44885;SDS011;36669;51.428;21.162;2023-06-22T06:35:50;14.38;;;7.53;;
44885;SDS011;36669;51.428;21.162;2023-06-22T06:38:15;8.77;;;5.10;;
44885;SDS011;36669;51.428;21.162;2023-06-22T06:40:41;8.15;;;4.63;;
44885;SDS011;36669;51.428;21.162;2023-06-22T06:43:06;1.42;;;0.98;;
44885;SDS011;36669;51.428;21.162;2023-06-22T06:45:32;2.28;;;1.60;;
44885;SDS011;36669;51.428;21.162;2023-06-22T06:47:59;1.52;;;1.42;;
44885;SDS011;36669;51.428;21.162;2023-06-22T06:50:25;1.80;;;1.50;;
44885;SDS011;36669;51.428;21.162;2023-06-22T06:52:50;4.60;;;3.33;;
44885;SDS011;36669;51.428;21.162;2023-06-22T06:55:16;12.82;;;5.82;;
44885;SDS011;36669;51.428;21.162;2023-06-22T06:57:42;15.65;;;6.95;;
44885;SDS011;36669;51.428;21.162;2023-06-22T07:00:10;12.52;;;7.72;;
44885;SDS011;36669;51.428;21.162;2023-06-22T07:02:39;6.40;;;2.85;;
44885;SDS011;36669;51.428;21.162;2023-06-22T07:05:06;11.27;;;5.93;;
44885;SDS011;36669;51.428;21.162;2023-06-22T07:07:32;11.48;;;6.93;;
44885;SDS011;36669;51.428;21.162;2023-06-22T07:09:57;11.43;;;5.72;;
44885;SDS011;36669;51.428;21.162;2023-06-22T07:12:23;3.83;;;2.35;;
44885;SDS011;36669;51.428;21.162;2023-06-22T07:14:49;11.85;;;1.85;;
44885;SDS011;36669;51.428;21.162;2023-06-22T07:17:15;9.57;;;4.82;;
44885;SDS011;36669;51.428;21.162;2023-06-22T07:19:41;8.13;;;5.13;;
44885;SDS011;36669;51.428;21.162;2023-06-22T07:22:07;18.20;;;12.05;;
44885;SDS011;36669;51.428;21.162;2023-06-22T07:24:32;18.65;;;7.38;;
44885;SDS011;36669;51.428;21.162;2023-06-22T07:26:58;4.88;;;2.97;;
44885;SDS011;36669;51.428;21.162;2023-06-22T07:29:25;3.13;;;2.63;;
44885;SDS011;36669;51.428;21.162;2023-06-22T07:31:52;5.35;;;2.35;;
44885;SDS011;36669;51.428;21.162;2023-06-22T07:34:18;7.10;;;2.08;;
44885;SDS011;36669;51.428;21.162;2023-06-22T07:36:44;9.45;;;6.60;;
44885;SDS011;36669;51.428;21.162;2023-06-22T07:39:10;3.95;;;2.83;;
44885;SDS011;36669;51.428;21.162;2023-06-22T07:41:37;15.20;;;8.52;;
44885;SDS011;36669;51.428;21.162;2023-06-22T07:44:03;10.68;;;5.18;;
44885;SDS011;36669;51.428;21.162;2023-06-22T07:46:29;9.60;;;4.35;;
44885;SDS011;36669;51.428;21.162;2023-06-22T07:48:55;14.05;;;7.22;;
44885;SDS011;36669;51.428;21.162;2023-06-22T07:51:21;17.58;;;9.65;;
44885;SDS011;36669;51.428;21.162;2023-06-22T07:53:47;10.50;;;5.47;;
44885;SDS011;36669;51.428;21.162;2023-06-22T07:56:13;2.60;;;1.92;;
44885;SDS011;36669;51.428;21.162;2023-06-22T07:58:43;2.33;;;1.85;;
44885;SDS011;36669;51.428;21.162;2023-06-22T08:01:10;2.70;;;1.45;;
44885;SDS011;36669;51.428;21.162;2023-06-22T08:03:36;8.07;;;4.50;;
44885;SDS011;36669;51.428;21.162;2023-06-22T08:06:02;11.63;;;5.82;;
44885;SDS011;36669;51.428;21.162;2023-06-22T08:08:28;3.53;;;3.17;;
44885;SDS011;36669;51.428;21.162;2023-06-22T08:10:54;9.75;;;4.88;;
44885;SDS011;36669;51.428;21.162;2023-06-22T08:13:19;9.75;;;6.25;;
44885;SDS011;36669;51.428;21.162;2023-06-22T08:15:45;15.32;;;7.70;;
44885;SDS011;36669;51.428;21.162;2023-06-22T08:18:11;7.97;;;3.33;;
44885;SDS011;36669;51.428;21.162;2023-06-22T08:20:37;0.73;;;0.73;;
44885;SDS011;36669;51.428;21.162;2023-06-22T08:23:02;4.72;;;2.85;;
44885;SDS011;36669;51.428;21.162;2023-06-22T08:25:34;5.07;;;3.78;;
44885;SDS011;36669;51.428;21.162;2023-06-22T08:28:00;6.75;;;5.15;;
44885;SDS011;36669;51.428;21.162;2023-06-22T08:30:27;5.45;;;3.50;;
44885;SDS011;36669;51.428;21.162;2023-06-22T08:32:53;8.93;;;6.03;;
44885;SDS011;36669;51.428;21.162;2023-06-22T08:35:20;11.93;;;5.35;;
44885;SDS011;36669;51.428;21.162;2023-06-22T08:37:47;10.40;;;4.95;;
44885;SDS011;36669;51.428;21.162;2023-06-22T08:40:16;15.57;;;6.05;;
44885;SDS011;36669;51.428;21.162;2023-06-22T08:42:42;9.05;;;4.85;;
44885;SDS011;36669;51.428;21.162;2023-06-22T08:45:08;6.40;;;4.72;;
44885;SDS011;36669;51.428;21.162;2023-06-22T08:47:34;9.18;;;4.32;;
44885;SDS011;36669;51.428;21.162;2023-06-22T08:50:00;10.90;;;6.38;;
44885;SDS011;36669;51.428;21.162;2023-06-22T08:52:29;9.82;;;4.28;;
44885;SDS011;36669;51.428;21.162;2023-06-22T08:54:54;2.78;;;1.73;;
44885;SDS011;36669;51.428;21.162;2023-06-22T08:57:20;5.00;;;3.25;;
44885;SDS011;36669;51.428;21.162;2023-06-22T08:59:46;5.18;;;3.42;;
44885;SDS011;36669;51.428;21.162;2023-06-22T09:02:12;7.90;;;4.20;;
44885;SDS011;36669;51.428;21.162;2023-06-22T09:04:38;7.15;;;3.92;;
44885;SDS011;36669;51.428;21.162;2023-06-22T09:07:03;7.45;;;4.68;;
44885;SDS011;36669;51.428;21.162;2023-06-22T09:09:29;4.60;;;3.33;;
44885;SDS011;36669;51.428;21.162;2023-06-22T09:11:55;6.18;;;2.50;;
44885;SDS011;36669;51.428;21.162;2023-06-22T09:14:21;6.30;;;2.92;;
44885;SDS011;36669;51.428;21.162;2023-06-22T09:16:47;8.27;;;3.65;;
44885;SDS011;36669;51.428;21.162;2023-06-22T09:19:12;0.75;;;0.75;;
44885;SDS011;36669;51.428;21.162;2023-06-22T09:21:38;1.73;;;1.20;;
44885;SDS011;36669;51.428;21.162;2023-06-22T09:24:04;1.13;;;1.05;;
44885;SDS011;36669;51.428;21.162;2023-06-22T09:26:30;1.98;;;1.27;;
44885;SDS011;36669;51.428;21.162;2023-06-22T09:28:55;6.10;;;3.42;;
44885;SDS011;36669;51.428;21.162;2023-06-22T09:31:21;2.30;;;0.95;;
44885;SDS011;36669;51.428;21.162;2023-06-22T09:33:51;0.65;;;0.65;;
44885;SDS011;36669;51.428;21.162;2023-06-22T09:36:22;1.70;;;1.25;;
44885;SDS011;36669;51.428;21.162;2023-06-22T09:38:48;3.22;;;2.05;;
44885;SDS011;36669;51.428;21.162;2023-06-22T09:41:20;4.78;;;2.78;;
44885;SDS011;36669;51.428;21.162;2023-06-22T09:43:46;3.88;;;2.33;;
44885;SDS011;36669;51.428;21.162;2023-06-22T09:46:14;2.58;;;2.08;;
44885;SDS011;36669;51.428;21.162;2023-06-22T09:48:42;0.90;;;0.82;;
44885;SDS011;36669;51.428;21.162;2023-06-22T09:51:08;1.45;;;1.35;;
44885;SDS011;36669;51.428;21.162;2023-06-22T09:53:34;1.50;;;0.90;;
44885;SDS011;36669;51.428;21.162;2023-06-22T09:56:00;3.08;;;2.08;;
44885;SDS011;36669;51.428;21.162;2023-06-22T09:58:26;3.08;;;1.90;;
44885;SDS011;36669;51.428;21.162;2023-06-22T10:00:52;4.97;;;2.58;;
44885;SDS011;36669;51.428;21.162;2023-06-22T10:03:19;0.00;;;0.00;;
44885;SDS011;36669;51.428;21.162;2023-06-22T10:05:45;2.13;;;0.90;;
44885;SDS011;36669;51.428;21.162;2023-06-22T10:08:10;2.03;;;1.77;;
44885;SDS011;36669;51.428;21.162;2023-06-22T10:10:36;1.67;;;1.05;;
44885;SDS011;36669;51.428;21.162;2023-06-22T10:13:03;4.03;;;1.90;;
44885;SDS011;36669;51.428;21.162;2023-06-22T10:15:36;4.95;;;2.35;;
44885;SDS011;36669;51.428;21.162;2023-06-22T10:18:02;0.25;;;0.25;;
44885;SDS011;36669;51.428;21.162;2023-06-22T10:20:27;1.92;;;1.30;;
44885;SDS011;36669;51.428;21.162;2023-06-22T10:22:53;8.02;;;2.67;;
44885;SDS011;36669;51.428;21.162;2023-06-22T10:25:19;5.10;;;1.50;;
44885;SDS011;36669;51.428;21.162;2023-06-22T10:27:44;2.28;;;1.80;;
44885;SDS011;36669;51.428;21.162;2023-06-22T10:30:11;1.58;;;1.17;;
44885;SDS011;36669;51.428;21.162;2023-06-22T10:32:37;2.88;;;1.85;;
44885;SDS011;36669;51.428;21.162;2023-06-22T10:35:04;0.20;;;0.20;;
44885;SDS011;36669;51.428;21.162;2023-06-22T10:37:30;4.93;;;1.73;;
44885;SDS011;36669;51.428;21.162;2023-06-22T10:39:56;3.28;;;1.95;;
44885;SDS011;36669;51.428;21.162;2023-06-22T10:42:22;1.20;;;1.10;;
44885;SDS011;36669;51.428;21.162;2023-06-22T10:44:47;3.95;;;1.85;;
44885;SDS011;36669;51.428;21.162;2023-06-22T10:47:13;1.67;;;0.60;;
44885;SDS011;36669;51.428;21.162;2023-06-22T10:49:39;2.95;;;1.15;;
44885;SDS011;36669;51.428;21.162;2023-06-22T10:52:08;1.52;;;1.05;;
44885;SDS011;36669;51.428;21.162;2023-06-22T10:54:37;2.83;;;2.50;;
44885;SDS011;36669;51.428;21.162;2023-06-22T10:57:03;3.03;;;1.55;;
44885;SDS011;36669;51.428;21.162;2023-06-22T10:59:28;1.50;;;1.23;;
44885;SDS011;36669;51.428;21.162;2023-06-22T11:01:57;1.52;;;1.13;;
44885;SDS011;36669;51.428;21.162;2023-06-22T11:04:23;1.85;;;1.38;;
44885;SDS011;36669;51.428;21.162;2023-06-22T11:06:49;0.32;;;0.32;;
44885;SDS011;36669;51.428;21.162;2023-06-22T11:09:16;0.85;;;0.57;;
44885;SDS011;36669;51.428;21.162;2023-06-22T11:11:45;1.25;;;0.93;;
44885;SDS011;36669;51.428;21.162;2023-06-22T11:14:11;0.65;;;0.65;;
44885;SDS011;36669;51.428;21.162;2023-06-22T11:16:37;0.00;;;0.00;;
44885;SDS011;36669;51.428;21.162;2023-06-22T11:19:04;1.08;;;0.93;;
44885;SDS011;36669;51.428;21.162;2023-06-22T11:21:31;0.70;;;0.43;;
44885;SDS011;36669;51.428;21.162;2023-06-22T11:23:57;2.45;;;1.65;;
44885;SDS011;36669;51.428;21.162;2023-06-22T11:26:24;0.00;;;0.00;;
44885;SDS011;36669;51.428;21.162;2023-06-22T11:28:52;6.05;;;2.58;;
44885;SDS011;36669;51.428;21.162;2023-06-22T11:31:17;0.00;;;0.00;;
44885;SDS011;36669;51.428;21.162;2023-06-22T11:33:43;1.77;;;1.13;;
44885;SDS011;36669;51.428;21.162;2023-06-22T11:36:10;0.75;;;0.47;;
44885;SDS011;36669;51.428;21.162;2023-06-22T11:38:36;2.25;;;1.50;;
44885;SDS011;36669;51.428;21.162;2023-06-22T11:41:05;2.20;;;1.10;;
44885;SDS011;36669;51.428;21.162;2023-06-22T11:43:31;2.55;;;2.00;;
44885;SDS011;36669;51.428;21.162;2023-06-22T11:45:57;1.20;;;1.10;;
44885;SDS011;36669;51.428;21.162;2023-06-22T11:48:23;2.08;;;1.38;;
44885;SDS011;36669;51.428;21.162;2023-06-22T11:50:49;3.95;;;2.05;;
44885;SDS011;36669;51.428;21.162;2023-06-22T11:53:15;1.92;;;1.20;;
44885;SDS011;36669;51.428;21.162;2023-06-22T11:55:42;1.10;;;1.00;;
44885;SDS011;36669;51.428;21.162;2023-06-22T11:58:11;0.80;;;0.75;;
44885;SDS011;36669;51.428;21.162;2023-06-22T12:00:37;0.55;;;0.55;;
44885;SDS011;36669;51.428;21.162;2023-06-22T12:03:03;4.78;;;0.93;;
44885;SDS011;36669;51.428;21.162;2023-06-22T12:05:28;0.40;;;0.40;;
44885;SDS011;36669;51.428;21.162;2023-06-22T12:07:54;0.00;;;0.00;;
44885;SDS011;36669;51.428;21.162;2023-06-22T12:10:24;1.38;;;0.10;;
44885;SDS011;36669;51.428;21.162;2023-06-22T12:12:50;0.65;;;0.47;;
44885;SDS011;36669;51.428;21.162;2023-06-22T12:15:16;0.47;;;0.40;;
44885;SDS011;36669;51.428;21.162;2023-06-22T12:17:42;1.90;;;0.73;;
44885;SDS011;36669;51.428;21.162;2023-06-22T12:20:07;0.50;;;0.40;;
44885;SDS011;36669;51.428;21.162;2023-06-22T12:22:34;1.50;;;1.05;;
44885;SDS011;36669;51.428;21.162;2023-06-22T12:25:00;1.08;;;0.95;;
44885;SDS011;36669;51.428;21.162;2023-06-22T12:27:26;1.77;;;1.00;;
44885;SDS011;36669;51.428;21.162;2023-06-22T12:29:51;1.55;;;0.47;;
44885;SDS011;36669;51.428;21.162;2023-06-22T12:32:17;4.00;;;1.48;;
44885;SDS011;36669;51.428;21.162;2023-06-22T12:34:43;1.85;;;1.23;;
44885;SDS011;36669;51.428;21.162;2023-06-22T12:37:09;3.17;;;0.75;;
44885;SDS011;36669;51.428;21.162;2023-06-22T12:39:35;1.65;;;1.23;;
44885;SDS011;36669;51.428;21.162;2023-06-22T12:42:01;2.30;;;1.20;;
44885;SDS011;36669;51.428;21.162;2023-06-22T12:44:26;1.90;;;1.45;;
44885;SDS011;36669;51.428;21.162;2023-06-22T12:46:52;2.28;;;0.85;;
44885;SDS011;36669;51.428;21.162;2023-06-22T12:49:17;0.75;;;0.75;;
44885;SDS011;36669;51.428;21.162;2023-06-22T12:51:44;0.85;;;0.80;;
44885;SDS011;36669;51.428;21.162;2023-06-22T12:54:10;2.60;;;1.10;;
44885;SDS011;36669;51.428;21.162;2023-06-22T12:56:37;0.60;;;0.60;;
44885;SDS011;36669;51.428;21.162;2023-06-22T12:59:03;0.80;;;0.75;;
44885;SDS011;36669;51.428;21.162;2023-06-22T13:01:29;0.60;;;0.60;;
44885;SDS011;36669;51.428;21.162;2023-06-22T13:03:56;2.45;;;1.52;;
44885;SDS011;36669;51.428;21.162;2023-06-22T13:06:23;0.30;;;0.30;;
44885;SDS011;36669;51.428;21.162;2023-06-22T13:08:48;1.70;;;1.00;;
44885;SDS011;36669;51.428;21.162;2023-06-22T13:11:14;2.88;;;1.48;;
44885;SDS011;36669;51.428;21.162;2023-06-22T13:13:40;0.98;;;0.73;;
44885;SDS011;36669;51.428;21.162;2023-06-22T13:16:05;0.38;;;0.38;;
44885;SDS011;36669;51.428;21.162;2023-06-22T13:18:31;7.03;;;0.80;;
44885;SDS011;36669;51.428;21.162;2023-06-22T13:20:58;1.75;;;1.25;;
44885;SDS011;36669;51.428;21.162;2023-06-22T13:23:25;0.10;;;0.10;;
44885;SDS011;36669;51.428;21.162;2023-06-22T13:25:51;0.20;;;0.20;;
44885;SDS011;36669;51.428;21.162;2023-06-22T13:28:16;0.35;;;0.35;;
44885;SDS011;36669;51.428;21.162;2023-06-22T13:30:42;4.78;;;1.88;;
44885;SDS011;36669;51.428;21.162;2023-06-22T13:33:11;2.10;;;1.05;;
44885;SDS011;36669;51.428;21.162;2023-06-22T13:35:36;5.43;;;1.55;;
44885;SDS011;36669;51.428;21.162;2023-06-22T13:38:02;1.80;;;1.30;;
44885;SDS011;36669;51.428;21.162;2023-06-22T13:40:28;2.35;;;1.13;;
44885;SDS011;36669;51.428;21.162;2023-06-22T13:42:54;5.38;;;0.80;;
44885;SDS011;36669;51.428;21.162;2023-06-22T13:45:20;0.80;;;0.80;;
44885;SDS011;36669;51.428;21.162;2023-06-22T13:47:46;1.58;;;0.93;;
44885;SDS011;36669;51.428;21.162;2023-06-22T13:50:12;1.65;;;0.80;;
44885;SDS011;36669;51.428;21.162;2023-06-22T13:52:38;1.15;;;0.90;;
44885;SDS011;36669;51.428;21.162;2023-06-22T13:55:04;1.65;;;0.45;;
44885;SDS011;36669;51.428;21.162;2023-06-22T13:57:31;0.73;;;0.73;;
44885;SDS011;36669;51.428;21.162;2023-06-22T13:59:58;2.08;;;0.52;;
44885;SDS011;36669;51.428;21.162;2023-06-22T14:02:25;0.30;;;0.30;;
44885;SDS011;36669;51.428;21.162;2023-06-22T14:04:52;0.22;;;0.10;;
44885;SDS011;36669;51.428;21.162;2023-06-22T14:07:18;1.20;;;0.82;;
44885;SDS011;36669;51.428;21.162;2023-06-22T14:09:47;1.23;;;0.77;;
44885;SDS011;36669;51.428;21.162;2023-06-22T14:12:13;1.50;;;0.57;;
44885;SDS011;36669;51.428;21.162;2023-06-22T14:14:38;0.52;;;0.20;;
44885;SDS011;36669;51.428;21.162;2023-06-22T14:17:04;2.13;;;1.08;;
44885;SDS011;36669;51.428;21.162;2023-06-22T14:19:30;0.50;;;0.45;;
44885;SDS011;36669;51.428;21.162;2023-06-22T14:21:56;1.92;;;0.85;;
44885;SDS011;36669;51.428;21.162;2023-06-22T14:24:22;0.32;;;0.30;;
44885;SDS011;36669;51.428;21.162;2023-06-22T14:26:48;0.30;;;0.22;;
44885;SDS011;36669;51.428;21.162;2023-06-22T14:29:14;1.17;;;0.60;;
44885;SDS011;36669;51.428;21.162;2023-06-22T14:31:44;0.50;;;0.50;;
44885;SDS011;36669;51.428;21.162;2023-06-22T14:34:10;0.38;;;0.38;;
44885;SDS011;36669;51.428;21.162;2023-06-22T14:36:36;1.75;;;1.38;;
44885;SDS011;36669;51.428;21.162;2023-06-22T14:39:02;0.75;;;0.68;;